sensor_id;sensor_type;location;lat;lon;timestamp;P1;durP1;ratioP1;P2;durP2;ratioP2
12519;SDS011;6325;49.540;8.364;2023-04-30T00:01:37;6.30;;;5.85;;
12519;SDS011;6325;49.540;8.364;2023-04-30T00:04:04;7.32;;;6.72;;
12519;SDS011;6325;49.540;8.364;2023-04-30T00:06:30;7.20;;;6.60;;
12519;SDS011;6325;49.540;8.364;2023-04-30T00:08:57;6.55;;;6.05;;
12519;SDS011;6325;49.540;8.364;2023-04-30T00:11:24;6.85;;;6.25;;
12519;SDS011;6325;49.540;8.364;2023-04-30T00:13:51;7.07;;;6.53;;
12519;SDS011;6325;49.540;8.364;2023-04-30T00:16:19;6.97;;;6.47;;
12519;SDS011;6325;49.540;8.364;2023-04-30T00:18:45;6.60;;;6.10;;
12519;SDS011;6325;49.540;8.364;2023-04-30T00:21:12;7.10;;;6.50;;
12519;SDS011;6325;49.540;8.364;2023-04-30T00:23:39;7.20;;;6.60;;
12519;SDS011;6325;49.540;8.364;2023-04-30T00:26:06;6.97;;;6.47;;
12519;SDS011;6325;49.540;8.364;2023-04-30T00:28:32;6.70;;;6.20;;
12519;SDS011;6325;49.540;8.364;2023-04-30T00:30:59;7.20;;;6.60;;
12519;SDS011;6325;49.540;8.364;2023-04-30T00:33:27;6.80;;;6.30;;
12519;SDS011;6325;49.540;8.364;2023-04-30T00:35:54;6.65;;;6.15;;
12519;SDS011;6325;49.540;8.364;2023-04-30T00:38:21;6.88;;;6.38;;
12519;SDS011;6325;49.540;8.364;2023-04-30T00:40:49;7.55;;;6.95;;
12519;SDS011;6325;49.540;8.364;2023-04-30T00:43:16;7.07;;;6.50;;
12519;SDS011;6325;49.540;8.364;2023-04-30T00:45:43;7.30;;;6.70;;
12519;SDS011;6325;49.540;8.364;2023-04-30T00:48:10;7.13;;;6.63;;
12519;SDS011;6325;49.540;8.364;2023-04-30T00:50:38;7.50;;;6.90;;
12519;SDS011;6325;49.540;8.364;2023-04-30T00:53:06;7.00;;;6.50;;
12519;SDS011;6325;49.540;8.364;2023-04-30T00:55:33;7.40;;;6.80;;
12519;SDS011;6325;49.540;8.364;2023-04-30T00:57:59;7.82;;;7.13;;
12519;SDS011;6325;49.540;8.364;2023-04-30T01:00:27;7.78;;;7.18;;
12519;SDS011;6325;49.540;8.364;2023-04-30T01:02:54;7.80;;;7.20;;
12519;SDS011;6325;49.540;8.364;2023-04-30T01:05:21;7.70;;;7.10;;
12519;SDS011;6325;49.540;8.364;2023-04-30T01:07:49;7.63;;;6.93;;
12519;SDS011;6325;49.540;8.364;2023-04-30T01:10:17;7.13;;;6.53;;
12519;SDS011;6325;49.540;8.364;2023-04-30T01:12:45;7.80;;;7.20;;
12519;SDS011;6325;49.540;8.364;2023-04-30T01:15:25;7.30;;;6.80;;
12519;SDS011;6325;49.540;8.364;2023-04-30T01:17:58;7.78;;;7.10;;
12519;SDS011;6325;49.540;8.364;2023-04-30T01:20:31;7.75;;;7.15;;
12519;SDS011;6325;49.540;8.364;2023-04-30T01:23:01;7.68;;;7.07;;
12519;SDS011;6325;49.540;8.364;2023-04-30T01:25:43;7.68;;;7.05;;
12519;SDS011;6325;49.540;8.364;2023-04-30T01:28:18;7.68;;;7.07;;
12519;SDS011;6325;49.540;8.364;2023-04-30T01:30:46;8.10;;;7.40;;
12519;SDS011;6325;49.540;8.364;2023-04-30T01:33:13;8.10;;;7.40;;
12519;SDS011;6325;49.540;8.364;2023-04-30T01:38:40;8.27;;;7.57;;
12519;SDS011;6325;49.540;8.364;2023-04-30T01:41:19;7.83;;;7.20;;
12519;SDS011;6325;49.540;8.364;2023-04-30T01:43:57;7.40;;;6.80;;
12519;SDS011;6325;49.540;8.364;2023-04-30T01:46:36;8.10;;;7.40;;
12519;SDS011;6325;49.540;8.364;2023-04-30T01:49:07;8.00;;;7.30;;
12519;SDS011;6325;49.540;8.364;2023-04-30T01:51:44;7.93;;;7.25;;
12519;SDS011;6325;49.540;8.364;2023-04-30T01:54:16;7.75;;;7.15;;
12519;SDS011;6325;49.540;8.364;2023-04-30T01:57:00;8.02;;;7.32;;
12519;SDS011;6325;49.540;8.364;2023-04-30T01:59:31;8.00;;;7.30;;
12519;SDS011;6325;49.540;8.364;2023-04-30T02:02:00;8.27;;;7.68;;
12519;SDS011;6325;49.540;8.364;2023-04-30T02:04:27;7.82;;;7.22;;
12519;SDS011;6325;49.540;8.364;2023-04-30T02:06:53;7.93;;;7.30;;
12519;SDS011;6325;49.540;8.364;2023-04-30T02:09:20;7.85;;;7.15;;
12519;SDS011;6325;49.540;8.364;2023-04-30T02:11:48;7.80;;;7.20;;
12519;SDS011;6325;49.540;8.364;2023-04-30T02:14:14;7.90;;;7.30;;
12519;SDS011;6325;49.540;8.364;2023-04-30T02:16:43;7.55;;;7.00;;
12519;SDS011;6325;49.540;8.364;2023-04-30T02:19:10;7.93;;;7.32;;
12519;SDS011;6325;49.540;8.364;2023-04-30T02:21:36;7.97;;;7.30;;
12519;SDS011;6325;49.540;8.364;2023-04-30T02:24:03;7.53;;;6.93;;
12519;SDS011;6325;49.540;8.364;2023-04-30T02:26:31;8.20;;;7.50;;
12519;SDS011;6325;49.540;8.364;2023-04-30T02:28:58;7.67;;;7.07;;
12519;SDS011;6325;49.540;8.364;2023-04-30T02:31:24;7.60;;;7.00;;
12519;SDS011;6325;49.540;8.364;2023-04-30T02:33:52;7.47;;;6.90;;
12519;SDS011;6325;49.540;8.364;2023-04-30T02:36:19;7.63;;;7.03;;
12519;SDS011;6325;49.540;8.364;2023-04-30T02:38:46;8.03;;;7.33;;
12519;SDS011;6325;49.540;8.364;2023-04-30T02:41:13;7.85;;;7.25;;
12519;SDS011;6325;49.540;8.364;2023-04-30T02:43:40;7.40;;;6.90;;
12519;SDS011;6325;49.540;8.364;2023-04-30T02:46:06;7.93;;;7.32;;
12519;SDS011;6325;49.540;8.364;2023-04-30T02:48:33;8.15;;;7.45;;
12519;SDS011;6325;49.540;8.364;2023-04-30T02:51:01;8.30;;;7.60;;
12519;SDS011;6325;49.540;8.364;2023-04-30T02:53:28;8.55;;;7.80;;
12519;SDS011;6325;49.540;8.364;2023-04-30T02:55:55;8.20;;;7.50;;
12519;SDS011;6325;49.540;8.364;2023-04-30T02:58:23;8.00;;;7.40;;
12519;SDS011;6325;49.540;8.364;2023-04-30T03:00:50;7.88;;;7.18;;
12519;SDS011;6325;49.540;8.364;2023-04-30T03:03:17;8.23;;;7.43;;
12519;SDS011;6325;49.540;8.364;2023-04-30T03:05:44;8.13;;;7.45;;
12519;SDS011;6325;49.540;8.364;2023-04-30T03:08:12;8.10;;;7.50;;
12519;SDS011;6325;49.540;8.364;2023-04-30T03:10:38;8.35;;;7.65;;
12519;SDS011;6325;49.540;8.364;2023-04-30T03:13:05;8.40;;;7.70;;
12519;SDS011;6325;49.540;8.364;2023-04-30T03:15:32;8.90;;;8.10;;
12519;SDS011;6325;49.540;8.364;2023-04-30T03:17:59;8.30;;;7.70;;
12519;SDS011;6325;49.540;8.364;2023-04-30T03:20:26;8.13;;;7.53;;
12519;SDS011;6325;49.540;8.364;2023-04-30T03:22:52;8.30;;;7.70;;
12519;SDS011;6325;49.540;8.364;2023-04-30T03:25:20;8.75;;;8.15;;
12519;SDS011;6325;49.540;8.364;2023-04-30T03:27:47;8.65;;;7.95;;
12519;SDS011;6325;49.540;8.364;2023-04-30T03:30:14;9.10;;;8.40;;
12519;SDS011;6325;49.540;8.364;2023-04-30T03:32:41;8.70;;;8.02;;
12519;SDS011;6325;49.540;8.364;2023-04-30T03:35:09;8.80;;;8.10;;
12519;SDS011;6325;49.540;8.364;2023-04-30T03:37:36;8.73;;;7.93;;
12519;SDS011;6325;49.540;8.364;2023-04-30T03:40:03;9.02;;;8.30;;
12519;SDS011;6325;49.540;8.364;2023-04-30T03:42:32;8.40;;;7.80;;
12519;SDS011;6325;49.540;8.364;2023-04-30T03:44:59;8.68;;;7.97;;
12519;SDS011;6325;49.540;8.364;2023-04-30T03:47:26;8.90;;;8.10;;
12519;SDS011;6325;49.540;8.364;2023-04-30T03:49:53;8.18;;;7.57;;
12519;SDS011;6325;49.540;8.364;2023-04-30T03:52:20;8.50;;;7.80;;
12519;SDS011;6325;49.540;8.364;2023-04-30T03:54:47;8.32;;;7.63;;
12519;SDS011;6325;49.540;8.364;2023-04-30T03:57:13;8.88;;;8.18;;
12519;SDS011;6325;49.540;8.364;2023-04-30T03:59:42;8.20;;;7.60;;
12519;SDS011;6325;49.540;8.364;2023-04-30T04:02:08;8.05;;;7.45;;
12519;SDS011;6325;49.540;8.364;2023-04-30T04:04:35;9.10;;;8.23;;
12519;SDS011;6325;49.540;8.364;2023-04-30T04:07:04;8.68;;;7.97;;
12519;SDS011;6325;49.540;8.364;2023-04-30T04:09:32;8.85;;;8.10;;
12519;SDS011;6325;49.540;8.364;2023-04-30T04:11:58;8.47;;;7.87;;
12519;SDS011;6325;49.540;8.364;2023-04-30T04:14:26;8.40;;;7.80;;
12519;SDS011;6325;49.540;8.364;2023-04-30T04:16:54;8.80;;;8.10;;
12519;SDS011;6325;49.540;8.364;2023-04-30T04:19:23;8.57;;;7.88;;
12519;SDS011;6325;49.540;8.364;2023-04-30T04:21:50;8.63;;;7.93;;
12519;SDS011;6325;49.540;8.364;2023-04-30T04:24:17;8.15;;;7.50;;
12519;SDS011;6325;49.540;8.364;2023-04-30T04:26:44;8.40;;;7.78;;
12519;SDS011;6325;49.540;8.364;2023-04-30T04:29:11;8.80;;;8.10;;
12519;SDS011;6325;49.540;8.364;2023-04-30T04:31:38;8.57;;;7.88;;
12519;SDS011;6325;49.540;8.364;2023-04-30T04:34:08;8.50;;;7.80;;
12519;SDS011;6325;49.540;8.364;2023-04-30T04:36:35;8.90;;;8.20;;
12519;SDS011;6325;49.540;8.364;2023-04-30T04:39:02;8.63;;;8.00;;
12519;SDS011;6325;49.540;8.364;2023-04-30T04:41:29;8.53;;;7.93;;
12519;SDS011;6325;49.540;8.364;2023-04-30T04:43:56;9.02;;;8.23;;
12519;SDS011;6325;49.540;8.364;2023-04-30T04:46:24;9.07;;;8.38;;
12519;SDS011;6325;49.540;8.364;2023-04-30T04:48:52;8.73;;;8.02;;
12519;SDS011;6325;49.540;8.364;2023-04-30T04:51:20;8.63;;;7.93;;
12519;SDS011;6325;49.540;8.364;2023-04-30T04:53:47;8.35;;;7.75;;
12519;SDS011;6325;49.540;8.364;2023-04-30T04:56:14;8.65;;;7.95;;
12519;SDS011;6325;49.540;8.364;2023-04-30T04:58:41;9.07;;;8.35;;
12519;SDS011;6325;49.540;8.364;2023-04-30T05:01:09;9.02;;;8.32;;
12519;SDS011;6325;49.540;8.364;2023-04-30T05:03:36;8.52;;;7.82;;
12519;SDS011;6325;49.540;8.364;2023-04-30T05:06:03;8.50;;;7.90;;
12519;SDS011;6325;49.540;8.364;2023-04-30T05:08:31;8.52;;;7.93;;
12519;SDS011;6325;49.540;8.364;2023-04-30T05:10:58;8.30;;;7.70;;
12519;SDS011;6325;49.540;8.364;2023-04-30T05:13:25;8.80;;;8.10;;
12519;SDS011;6325;49.540;8.364;2023-04-30T05:15:52;8.65;;;8.00;;
12519;SDS011;6325;49.540;8.364;2023-04-30T05:18:19;8.85;;;8.15;;
12519;SDS011;6325;49.540;8.364;2023-04-30T05:20:46;9.13;;;8.38;;
12519;SDS011;6325;49.540;8.364;2023-04-30T05:23:13;9.45;;;8.65;;
12519;SDS011;6325;49.540;8.364;2023-04-30T05:25:42;8.93;;;8.23;;
12519;SDS011;6325;49.540;8.364;2023-04-30T05:28:09;9.10;;;8.30;;
12519;SDS011;6325;49.540;8.364;2023-04-30T05:30:36;9.00;;;8.30;;
12519;SDS011;6325;49.540;8.364;2023-04-30T05:33:03;9.25;;;8.50;;
12519;SDS011;6325;49.540;8.364;2023-04-30T05:35:30;8.38;;;7.78;;
12519;SDS011;6325;49.540;8.364;2023-04-30T05:37:59;8.68;;;7.90;;
12519;SDS011;6325;49.540;8.364;2023-04-30T05:40:26;8.20;;;7.60;;
12519;SDS011;6325;49.540;8.364;2023-04-30T05:42:55;8.27;;;7.65;;
12519;SDS011;6325;49.540;8.364;2023-04-30T05:45:22;8.63;;;7.93;;
12519;SDS011;6325;49.540;8.364;2023-04-30T05:47:48;8.50;;;7.80;;
12519;SDS011;6325;49.540;8.364;2023-04-30T05:50:15;8.50;;;7.80;;
12519;SDS011;6325;49.540;8.364;2023-04-30T05:52:42;7.85;;;7.22;;
12519;SDS011;6325;49.540;8.364;2023-04-30T05:55:09;8.13;;;7.47;;
12519;SDS011;6325;49.540;8.364;2023-04-30T05:57:36;7.88;;;7.30;;
12519;SDS011;6325;49.540;8.364;2023-04-30T06:00:05;7.57;;;6.97;;
12519;SDS011;6325;49.540;8.364;2023-04-30T06:02:33;7.88;;;7.28;;
12519;SDS011;6325;49.540;8.364;2023-04-30T06:04:59;7.25;;;6.70;;
12519;SDS011;6325;49.540;8.364;2023-04-30T06:07:27;7.80;;;7.20;;
12519;SDS011;6325;49.540;8.364;2023-04-30T06:09:54;8.15;;;7.45;;
12519;SDS011;6325;49.540;8.364;2023-04-30T06:12:21;7.80;;;7.20;;
12519;SDS011;6325;49.540;8.364;2023-04-30T06:14:48;7.57;;;6.97;;
12519;SDS011;6325;49.540;8.364;2023-04-30T06:17:17;7.28;;;6.75;;
12519;SDS011;6325;49.540;8.364;2023-04-30T06:19:44;7.80;;;7.20;;
12519;SDS011;6325;49.540;8.364;2023-04-30T06:22:11;7.90;;;7.20;;
12519;SDS011;6325;49.540;8.364;2023-04-30T06:24:38;7.75;;;7.05;;
12519;SDS011;6325;49.540;8.364;2023-04-30T06:27:05;7.40;;;6.80;;
12519;SDS011;6325;49.540;8.364;2023-04-30T06:29:32;6.97;;;6.38;;
12519;SDS011;6325;49.540;8.364;2023-04-30T06:31:58;6.95;;;6.35;;
12519;SDS011;6325;49.540;8.364;2023-04-30T06:34:26;6.60;;;6.10;;
12519;SDS011;6325;49.540;8.364;2023-04-30T06:36:55;6.22;;;5.82;;
12519;SDS011;6325;49.540;8.364;2023-04-30T06:39:21;6.90;;;6.30;;
12519;SDS011;6325;49.540;8.364;2023-04-30T06:41:48;6.20;;;5.70;;
12519;SDS011;6325;49.540;8.364;2023-04-30T06:44:16;6.22;;;5.80;;
12519;SDS011;6325;49.540;8.364;2023-04-30T06:46:43;6.20;;;5.75;;
12519;SDS011;6325;49.540;8.364;2023-04-30T06:49:10;6.30;;;5.70;;
12519;SDS011;6325;49.540;8.364;2023-04-30T06:51:39;6.03;;;5.53;;
12519;SDS011;6325;49.540;8.364;2023-04-30T06:54:07;5.35;;;4.95;;
12519;SDS011;6325;49.540;8.364;2023-04-30T06:56:33;5.63;;;5.13;;
12519;SDS011;6325;49.540;8.364;2023-04-30T06:59:00;5.57;;;5.18;;
12519;SDS011;6325;49.540;8.364;2023-04-30T07:01:27;6.25;;;5.75;;
12519;SDS011;6325;49.540;8.364;2023-04-30T07:03:54;6.35;;;5.85;;
12519;SDS011;6325;49.540;8.364;2023-04-30T07:06:21;6.03;;;5.53;;
12519;SDS011;6325;49.540;8.364;2023-04-30T07:08:49;5.65;;;5.15;;
12519;SDS011;6325;49.540;8.364;2023-04-30T07:11:16;5.80;;;5.40;;
12519;SDS011;6325;49.540;8.364;2023-04-30T07:13:43;5.90;;;5.40;;
12519;SDS011;6325;49.540;8.364;2023-04-30T07:16:10;5.90;;;5.30;;
12519;SDS011;6325;49.540;8.364;2023-04-30T07:18:36;5.60;;;5.10;;
12519;SDS011;6325;49.540;8.364;2023-04-30T07:21:04;5.33;;;5.03;;
12519;SDS011;6325;49.540;8.364;2023-04-30T07:23:32;5.65;;;5.15;;
12519;SDS011;6325;49.540;8.364;2023-04-30T07:26:00;5.22;;;4.82;;
12519;SDS011;6325;49.540;8.364;2023-04-30T07:28:27;5.43;;;5.07;;
12519;SDS011;6325;49.540;8.364;2023-04-30T07:34:07;4.75;;;4.35;;
12519;SDS011;6325;49.540;8.364;2023-04-30T07:36:34;4.40;;;4.10;;
12519;SDS011;6325;49.540;8.364;2023-04-30T07:39:02;4.68;;;4.28;;
12519;SDS011;6325;49.540;8.364;2023-04-30T07:41:31;4.70;;;4.30;;
12519;SDS011;6325;49.540;8.364;2023-04-30T07:43:57;4.35;;;3.95;;
12519;SDS011;6325;49.540;8.364;2023-04-30T07:46:24;4.22;;;3.92;;
12519;SDS011;6325;49.540;8.364;2023-04-30T07:48:51;4.38;;;4.00;;
12519;SDS011;6325;49.540;8.364;2023-04-30T07:51:18;4.32;;;3.90;;
12519;SDS011;6325;49.540;8.364;2023-04-30T07:53:44;4.00;;;3.70;;
12519;SDS011;6325;49.540;8.364;2023-04-30T07:56:11;3.92;;;3.63;;
12519;SDS011;6325;49.540;8.364;2023-04-30T07:58:39;4.40;;;4.10;;
12519;SDS011;6325;49.540;8.364;2023-04-30T08:01:06;3.92;;;3.63;;
12519;SDS011;6325;49.540;8.364;2023-04-30T08:03:33;3.78;;;3.58;;
12519;SDS011;6325;49.540;8.364;2023-04-30T08:06:00;3.70;;;3.50;;
12519;SDS011;6325;49.540;8.364;2023-04-30T08:08:27;3.73;;;3.43;;
12519;SDS011;6325;49.540;8.364;2023-04-30T08:10:54;4.00;;;3.70;;
12519;SDS011;6325;49.540;8.364;2023-04-30T08:13:21;3.47;;;3.17;;
12519;SDS011;6325;49.540;8.364;2023-04-30T08:15:49;3.15;;;2.95;;
12519;SDS011;6325;49.540;8.364;2023-04-30T08:18:15;3.30;;;3.00;;
12519;SDS011;6325;49.540;8.364;2023-04-30T08:20:42;3.03;;;2.83;;
12519;SDS011;6325;49.540;8.364;2023-04-30T08:23:09;2.97;;;2.78;;
12519;SDS011;6325;49.540;8.364;2023-04-30T08:25:36;3.25;;;2.95;;
12519;SDS011;6325;49.540;8.364;2023-04-30T08:28:02;3.25;;;3.05;;
12519;SDS011;6325;49.540;8.364;2023-04-30T08:30:29;3.30;;;3.10;;
12519;SDS011;6325;49.540;8.364;2023-04-30T08:32:57;3.10;;;2.80;;
12519;SDS011;6325;49.540;8.364;2023-04-30T08:35:24;2.77;;;2.57;;
12519;SDS011;6325;49.540;8.364;2023-04-30T08:37:53;2.83;;;2.55;;
12519;SDS011;6325;49.540;8.364;2023-04-30T08:40:20;3.17;;;2.90;;
12519;SDS011;6325;49.540;8.364;2023-04-30T08:42:49;2.90;;;2.70;;
12519;SDS011;6325;49.540;8.364;2023-04-30T08:45:29;2.90;;;2.70;;
12519;SDS011;6325;49.540;8.364;2023-04-30T08:47:58;2.78;;;2.58;;
12519;SDS011;6325;49.540;8.364;2023-04-30T08:50:26;2.72;;;2.60;;
12519;SDS011;6325;49.540;8.364;2023-04-30T08:52:52;2.15;;;2.05;;
12519;SDS011;6325;49.540;8.364;2023-04-30T08:55:19;2.17;;;2.08;;
12519;SDS011;6325;49.540;8.364;2023-04-30T08:57:46;2.40;;;2.30;;
12519;SDS011;6325;49.540;8.364;2023-04-30T09:00:13;2.60;;;2.40;;
12519;SDS011;6325;49.540;8.364;2023-04-30T09:02:40;2.28;;;2.08;;
12519;SDS011;6325;49.540;8.364;2023-04-30T09:05:10;2.08;;;1.98;;
12519;SDS011;6325;49.540;8.364;2023-04-30T09:07:39;3.13;;;2.30;;
12519;SDS011;6325;49.540;8.364;2023-04-30T09:10:13;2.58;;;2.30;;
12519;SDS011;6325;49.540;8.364;2023-04-30T09:12:41;2.70;;;2.42;;
12519;SDS011;6325;49.540;8.364;2023-04-30T09:15:10;2.50;;;2.30;;
12519;SDS011;6325;49.540;8.364;2023-04-30T09:17:37;2.20;;;2.10;;
12519;SDS011;6325;49.540;8.364;2023-04-30T09:20:08;2.30;;;2.20;;
12519;SDS011;6325;49.540;8.364;2023-04-30T09:22:37;2.28;;;2.17;;
12519;SDS011;6325;49.540;8.364;2023-04-30T09:25:05;2.10;;;2.00;;
12519;SDS011;6325;49.540;8.364;2023-04-30T09:27:32;2.10;;;2.00;;
12519;SDS011;6325;49.540;8.364;2023-04-30T09:29:59;2.17;;;2.00;;
12519;SDS011;6325;49.540;8.364;2023-04-30T09:32:26;2.08;;;1.98;;
12519;SDS011;6325;49.540;8.364;2023-04-30T09:34:53;1.90;;;1.80;;
12519;SDS011;6325;49.540;8.364;2023-04-30T09:37:22;2.23;;;2.10;;
12519;SDS011;6325;49.540;8.364;2023-04-30T09:40:00;2.50;;;2.30;;
12519;SDS011;6325;49.540;8.364;2023-04-30T09:42:28;2.47;;;2.38;;
12519;SDS011;6325;49.540;8.364;2023-04-30T09:44:56;2.10;;;2.00;;
12519;SDS011;6325;49.540;8.364;2023-04-30T09:47:23;2.38;;;2.05;;
12519;SDS011;6325;49.540;8.364;2023-04-30T09:49:55;2.13;;;1.92;;
12519;SDS011;6325;49.540;8.364;2023-04-30T09:52:26;1.70;;;1.60;;
12519;SDS011;6325;49.540;8.364;2023-04-30T09:54:53;1.80;;;1.70;;
12519;SDS011;6325;49.540;8.364;2023-04-30T09:57:20;1.83;;;1.63;;
12519;SDS011;6325;49.540;8.364;2023-04-30T09:59:49;1.77;;;1.67;;
12519;SDS011;6325;49.540;8.364;2023-04-30T10:02:17;1.92;;;1.83;;
12519;SDS011;6325;49.540;8.364;2023-04-30T10:04:47;2.10;;;1.90;;
12519;SDS011;6325;49.540;8.364;2023-04-30T10:07:19;1.90;;;1.73;;
12519;SDS011;6325;49.540;8.364;2023-04-30T10:09:48;1.80;;;1.70;;
12519;SDS011;6325;49.540;8.364;2023-04-30T10:12:19;1.80;;;1.70;;
12519;SDS011;6325;49.540;8.364;2023-04-30T10:14:50;1.70;;;1.60;;
12519;SDS011;6325;49.540;8.364;2023-04-30T10:17:21;1.77;;;1.67;;
12519;SDS011;6325;49.540;8.364;2023-04-30T10:19:56;1.80;;;1.70;;
12519;SDS011;6325;49.540;8.364;2023-04-30T10:22:27;1.70;;;1.60;;
12519;SDS011;6325;49.540;8.364;2023-04-30T10:24:56;1.63;;;1.52;;
12519;SDS011;6325;49.540;8.364;2023-04-30T10:27:24;1.50;;;1.40;;
12519;SDS011;6325;49.540;8.364;2023-04-30T10:29:50;1.60;;;1.50;;
12519;SDS011;6325;49.540;8.364;2023-04-30T10:32:18;1.50;;;1.40;;
12519;SDS011;6325;49.540;8.364;2023-04-30T10:34:49;1.27;;;1.27;;
12519;SDS011;6325;49.540;8.364;2023-04-30T10:37:23;1.42;;;1.40;;
12519;SDS011;6325;49.540;8.364;2023-04-30T10:39:56;1.50;;;1.40;;
12519;SDS011;6325;49.540;8.364;2023-04-30T10:42:23;1.60;;;1.50;;
12519;SDS011;6325;49.540;8.364;2023-04-30T10:44:50;1.63;;;1.52;;
12519;SDS011;6325;49.540;8.364;2023-04-30T10:47:17;1.80;;;1.70;;
12519;SDS011;6325;49.540;8.364;2023-04-30T10:49:45;1.70;;;1.60;;
12519;SDS011;6325;49.540;8.364;2023-04-30T10:52:13;1.58;;;1.58;;
12519;SDS011;6325;49.540;8.364;2023-04-30T10:54:40;1.70;;;1.60;;
12519;SDS011;6325;49.540;8.364;2023-04-30T10:57:17;2.28;;;2.08;;
12519;SDS011;6325;49.540;8.364;2023-04-30T10:59:50;1.55;;;1.45;;
12519;SDS011;6325;49.540;8.364;2023-04-30T11:02:18;2.05;;;1.95;;
12519;SDS011;6325;49.540;8.364;2023-04-30T11:07:35;1.20;;;1.20;;
12519;SDS011;6325;49.540;8.364;2023-04-30T11:10:06;1.50;;;1.40;;
12519;SDS011;6325;49.540;8.364;2023-04-30T11:12:35;1.25;;;1.20;;
12519;SDS011;6325;49.540;8.364;2023-04-30T11:15:12;1.55;;;1.27;;
12519;SDS011;6325;49.540;8.364;2023-04-30T11:17:41;1.35;;;1.35;;
12519;SDS011;6325;49.540;8.364;2023-04-30T11:20:09;1.30;;;1.20;;
12519;SDS011;6325;49.540;8.364;2023-04-30T11:22:37;1.35;;;1.25;;
12519;SDS011;6325;49.540;8.364;2023-04-30T11:25:04;1.30;;;1.20;;
12519;SDS011;6325;49.540;8.364;2023-04-30T11:27:39;1.13;;;1.13;;
12519;SDS011;6325;49.540;8.364;2023-04-30T11:30:09;1.33;;;1.23;;
12519;SDS011;6325;49.540;8.364;2023-04-30T11:32:39;1.33;;;1.33;;
12519;SDS011;6325;49.540;8.364;2023-04-30T11:35:07;1.57;;;1.47;;
12519;SDS011;6325;49.540;8.364;2023-04-30T11:37:34;1.10;;;1.10;;
12519;SDS011;6325;49.540;8.364;2023-04-30T11:40:03;1.50;;;1.40;;
12519;SDS011;6325;49.540;8.364;2023-04-30T11:42:31;1.40;;;1.30;;
12519;SDS011;6325;49.540;8.364;2023-04-30T11:45:05;1.30;;;1.20;;
12519;SDS011;6325;49.540;8.364;2023-04-30T11:47:39;1.40;;;1.30;;
12519;SDS011;6325;49.540;8.364;2023-04-30T11:50:07;1.30;;;1.20;;
12519;SDS011;6325;49.540;8.364;2023-04-30T11:52:36;1.45;;;1.30;;
12519;SDS011;6325;49.540;8.364;2023-04-30T11:55:14;1.40;;;1.30;;
12519;SDS011;6325;49.540;8.364;2023-04-30T11:57:42;1.33;;;1.10;;
12519;SDS011;6325;49.540;8.364;2023-04-30T12:00:12;1.30;;;1.20;;
12519;SDS011;6325;49.540;8.364;2023-04-30T12:02:41;1.20;;;1.20;;
12519;SDS011;6325;49.540;8.364;2023-04-30T12:05:13;1.90;;;1.80;;
12519;SDS011;6325;49.540;8.364;2023-04-30T12:07:44;1.47;;;1.37;;
12519;SDS011;6325;49.540;8.364;2023-04-30T12:10:12;1.40;;;1.30;;
12519;SDS011;6325;49.540;8.364;2023-04-30T12:12:41;1.60;;;1.50;;
12519;SDS011;6325;49.540;8.364;2023-04-30T12:15:16;2.10;;;1.50;;
12519;SDS011;6325;49.540;8.364;2023-04-30T12:17:44;1.50;;;1.40;;
12519;SDS011;6325;49.540;8.364;2023-04-30T12:20:12;2.53;;;2.33;;
12519;SDS011;6325;49.540;8.364;2023-04-30T12:22:40;1.90;;;1.80;;
12519;SDS011;6325;49.540;8.364;2023-04-30T12:25:08;2.35;;;2.10;;
12519;SDS011;6325;49.540;8.364;2023-04-30T12:27:38;1.60;;;1.50;;
12519;SDS011;6325;49.540;8.364;2023-04-30T12:30:05;1.93;;;1.83;;
12519;SDS011;6325;49.540;8.364;2023-04-30T12:32:38;1.70;;;1.60;;
12519;SDS011;6325;49.540;8.364;2023-04-30T12:35:07;1.92;;;1.73;;
12519;SDS011;6325;49.540;8.364;2023-04-30T12:37:34;1.30;;;1.30;;
12519;SDS011;6325;49.540;8.364;2023-04-30T12:40:01;1.50;;;1.40;;
12519;SDS011;6325;49.540;8.364;2023-04-30T12:42:31;1.30;;;1.30;;
12519;SDS011;6325;49.540;8.364;2023-04-30T12:44:59;1.00;;;1.00;;
12519;SDS011;6325;49.540;8.364;2023-04-30T12:47:26;1.30;;;1.20;;
12519;SDS011;6325;49.540;8.364;2023-04-30T12:49:55;1.17;;;1.10;;
12519;SDS011;6325;49.540;8.364;2023-04-30T12:52:23;1.20;;;1.10;;
12519;SDS011;6325;49.540;8.364;2023-04-30T12:54:51;1.00;;;1.00;;
12519;SDS011;6325;49.540;8.364;2023-04-30T12:57:18;1.20;;;1.10;;
12519;SDS011;6325;49.540;8.364;2023-04-30T12:59:56;0.93;;;0.93;;
12519;SDS011;6325;49.540;8.364;2023-04-30T13:02:24;1.10;;;1.02;;
12519;SDS011;6325;49.540;8.364;2023-04-30T13:04:53;1.20;;;1.02;;
12519;SDS011;6325;49.540;8.364;2023-04-30T13:07:21;1.27;;;1.10;;
12519;SDS011;6325;49.540;8.364;2023-04-30T13:09:48;1.60;;;1.50;;
12519;SDS011;6325;49.540;8.364;2023-04-30T13:12:15;1.33;;;1.27;;
12519;SDS011;6325;49.540;8.364;2023-04-30T13:14:43;0.90;;;0.90;;
12519;SDS011;6325;49.540;8.364;2023-04-30T13:17:10;1.10;;;1.10;;
12519;SDS011;6325;49.540;8.364;2023-04-30T13:19:37;1.00;;;1.00;;
12519;SDS011;6325;49.540;8.364;2023-04-30T13:22:07;1.00;;;1.00;;
12519;SDS011;6325;49.540;8.364;2023-04-30T13:24:33;0.90;;;0.90;;
12519;SDS011;6325;49.540;8.364;2023-04-30T13:27:00;1.02;;;1.02;;
12519;SDS011;6325;49.540;8.364;2023-04-30T13:29:28;1.10;;;1.10;;
12519;SDS011;6325;49.540;8.364;2023-04-30T13:31:55;1.10;;;1.10;;
12519;SDS011;6325;49.540;8.364;2023-04-30T13:34:22;1.10;;;1.10;;
12519;SDS011;6325;49.540;8.364;2023-04-30T13:36:49;1.95;;;1.75;;
12519;SDS011;6325;49.540;8.364;2023-04-30T13:39:17;2.10;;;1.90;;
12519;SDS011;6325;49.540;8.364;2023-04-30T13:41:45;1.38;;;1.30;;
12519;SDS011;6325;49.540;8.364;2023-04-30T13:44:13;1.10;;;1.08;;
12519;SDS011;6325;49.540;8.364;2023-04-30T13:46:41;0.90;;;0.90;;
12519;SDS011;6325;49.540;8.364;2023-04-30T13:49:07;1.40;;;1.10;;
12519;SDS011;6325;49.540;8.364;2023-04-30T13:51:34;1.00;;;1.00;;
12519;SDS011;6325;49.540;8.364;2023-04-30T13:54:01;1.02;;;1.02;;
12519;SDS011;6325;49.540;8.364;2023-04-30T13:56:29;1.00;;;1.00;;
12519;SDS011;6325;49.540;8.364;2023-04-30T13:58:56;1.50;;;0.93;;
12519;SDS011;6325;49.540;8.364;2023-04-30T14:01:23;1.10;;;1.10;;
12519;SDS011;6325;49.540;8.364;2023-04-30T14:03:50;0.90;;;0.90;;
12519;SDS011;6325;49.540;8.364;2023-04-30T14:06:16;0.90;;;0.90;;
12519;SDS011;6325;49.540;8.364;2023-04-30T14:08:43;1.20;;;1.10;;
12519;SDS011;6325;49.540;8.364;2023-04-30T14:11:10;1.30;;;1.10;;
12519;SDS011;6325;49.540;8.364;2023-04-30T14:13:38;0.90;;;0.90;;
12519;SDS011;6325;49.540;8.364;2023-04-30T14:16:05;1.00;;;1.00;;
12519;SDS011;6325;49.540;8.364;2023-04-30T14:18:33;0.80;;;0.80;;
12519;SDS011;6325;49.540;8.364;2023-04-30T14:21:00;0.90;;;0.90;;
12519;SDS011;6325;49.540;8.364;2023-04-30T14:23:27;0.88;;;0.88;;
12519;SDS011;6325;49.540;8.364;2023-04-30T14:25:54;0.90;;;0.90;;
12519;SDS011;6325;49.540;8.364;2023-04-30T14:28:21;0.90;;;0.90;;
12519;SDS011;6325;49.540;8.364;2023-04-30T14:30:49;1.00;;;1.00;;
12519;SDS011;6325;49.540;8.364;2023-04-30T14:33:16;0.80;;;0.80;;
12519;SDS011;6325;49.540;8.364;2023-04-30T14:35:42;0.80;;;0.80;;
12519;SDS011;6325;49.540;8.364;2023-04-30T14:38:09;0.80;;;0.80;;
12519;SDS011;6325;49.540;8.364;2023-04-30T14:40:36;0.90;;;0.90;;
12519;SDS011;6325;49.540;8.364;2023-04-30T14:43:02;0.70;;;0.70;;
12519;SDS011;6325;49.540;8.364;2023-04-30T14:45:29;0.85;;;0.85;;
12519;SDS011;6325;49.540;8.364;2023-04-30T14:47:59;0.80;;;0.80;;
12519;SDS011;6325;49.540;8.364;2023-04-30T14:50:26;0.90;;;0.90;;
12519;SDS011;6325;49.540;8.364;2023-04-30T14:52:52;0.90;;;0.90;;
12519;SDS011;6325;49.540;8.364;2023-04-30T14:55:19;0.80;;;0.80;;
12519;SDS011;6325;49.540;8.364;2023-04-30T14:57:46;1.10;;;1.10;;
12519;SDS011;6325;49.540;8.364;2023-04-30T15:00:13;0.80;;;0.80;;
12519;SDS011;6325;49.540;8.364;2023-04-30T15:02:41;1.00;;;1.00;;
12519;SDS011;6325;49.540;8.364;2023-04-30T15:05:09;0.90;;;0.90;;
12519;SDS011;6325;49.540;8.364;2023-04-30T15:07:36;0.90;;;0.90;;
12519;SDS011;6325;49.540;8.364;2023-04-30T15:10:03;1.10;;;0.90;;
12519;SDS011;6325;49.540;8.364;2023-04-30T15:12:32;0.80;;;0.80;;
12519;SDS011;6325;49.540;8.364;2023-04-30T15:14:59;0.80;;;0.80;;